createdAt,value
2023-02-18T00:00:50.836Z,4.70
2023-02-18T00:06:29.942Z,4.20
2023-02-18T00:11:51.500Z,5.10
2023-02-18T00:17:13.028Z,3.97
2023-02-18T00:22:34.473Z,3.97
2023-02-18T00:27:55.805Z,4.97
2023-02-18T00:33:17.352Z,4.60
2023-02-18T00:38:39.368Z,5.43
2023-02-18T00:44:01.055Z,5.23
2023-02-18T00:49:22.333Z,5.90
2023-02-18T00:54:43.456Z,5.10
2023-02-18T01:00:07.219Z,6.30
2023-02-18T01:05:29.369Z,6.17
2023-02-18T01:10:55.327Z,5.70
2023-02-18T01:16:17.196Z,5.97
2023-02-18T01:21:40.970Z,6.47
2023-02-18T01:27:02.338Z,6.73
2023-02-18T01:32:24.097Z,6.77
2023-02-18T01:37:46.508Z,6.63
2023-02-18T01:43:09.747Z,6.77
2023-02-18T01:48:33.736Z,6.80
2023-02-18T01:54:15.697Z,7.03
2023-02-18T01:59:45.467Z,6.70
2023-02-18T02:05:07.313Z,6.47
2023-02-18T02:10:40.782Z,6.17
2023-02-18T02:16:11.956Z,6.50
2023-02-18T02:22:01.658Z,5.47
2023-02-18T02:27:43.118Z,6.00
2023-02-18T02:33:13.570Z,6.70
2023-02-18T02:38:40.141Z,6.37
2023-02-18T02:44:13.754Z,5.93
2023-02-18T02:49:49.244Z,6.27
2023-02-18T02:55:12.655Z,6.10
2023-02-18T03:00:45.772Z,5.43
2023-02-18T03:06:19.842Z,4.63
2023-02-18T03:11:57.071Z,4.80
2023-02-18T03:17:31.262Z,5.53
2023-02-18T03:22:56.167Z,5.27
2023-02-18T03:28:24.582Z,5.87
2023-02-18T03:34:07.979Z,6.30
2023-02-18T03:39:35.127Z,5.93
2023-02-18T03:44:59.349Z,5.73
2023-02-18T03:50:20.957Z,5.53
2023-02-18T03:55:42.835Z,5.20
2023-02-18T04:01:07.419Z,5.73
2023-02-18T04:06:29.342Z,5.73
2023-02-18T04:11:50.559Z,5.60
2023-02-18T04:17:12.051Z,6.47
2023-02-18T04:22:33.595Z,6.33
2023-02-18T04:27:54.882Z,6.17
2023-02-18T04:33:16.440Z,6.20
2023-02-18T04:38:37.848Z,6.27
2023-02-18T04:43:59.839Z,6.30
2023-02-18T04:49:21.058Z,5.93
2023-02-18T04:54:42.158Z,5.73
2023-02-18T05:00:06.924Z,5.20
2023-02-18T05:05:28.085Z,4.50
2023-02-18T05:10:49.584Z,3.73
2023-02-18T05:16:11.373Z,3.03
2023-02-18T05:21:34.268Z,2.70
2023-02-18T05:26:55.895Z,2.33
2023-02-18T05:32:17.083Z,2.30
2023-02-18T05:37:38.754Z,2.20
2023-02-18T05:43:00.127Z,2.37
2023-02-18T05:48:21.777Z,2.57
2023-02-18T05:53:43.665Z,3.27
2023-02-18T05:59:05.270Z,4.63
2023-02-18T06:04:26.674Z,5.97
2023-02-18T06:09:48.333Z,7.17
2023-02-18T06:15:10.109Z,7.87
2023-02-18T06:20:31.596Z,7.60
2023-02-18T06:25:52.912Z,8.17
2023-02-18T06:31:15.703Z,7.47
2023-02-18T06:36:37.448Z,8.20
2023-02-18T06:41:58.908Z,7.83
2023-02-18T06:47:20.519Z,7.67
2023-02-18T06:52:42.234Z,6.83
2023-02-18T06:58:04.353Z,5.87
2023-02-18T07:03:26.013Z,5.50
2023-02-18T07:08:47.571Z,5.30
2023-02-18T07:14:08.839Z,5.17
2023-02-18T07:19:30.361Z,4.57
2023-02-18T07:24:52.987Z,4.40
2023-02-18T07:30:14.884Z,4.50
2023-02-18T07:35:36.208Z,4.37
2023-02-18T07:40:58.805Z,4.10
2023-02-18T07:46:20.243Z,4.03
2023-02-18T07:51:41.863Z,4.20
2023-02-18T07:57:03.236Z,3.93
2023-02-18T08:02:25.636Z,3.87
2023-02-18T08:07:47.211Z,2.90
2023-02-18T08:13:09.167Z,2.90
2023-02-18T08:18:30.499Z,3.47
2023-02-18T08:23:52.418Z,3.60
2023-02-18T08:29:14.950Z,3.33
2023-02-18T08:34:36.384Z,2.83
2023-02-18T08:39:57.888Z,3.00
2023-02-18T08:45:19.379Z,2.40
2023-02-18T08:50:40.923Z,2.70
2023-02-18T08:56:29.287Z,2.57
2023-02-18T09:02:18.812Z,2.17
2023-02-18T09:07:46.184Z,1.90
2023-02-18T09:13:13.266Z,1.90
2023-02-18T09:18:45.011Z,1.57
2023-02-18T09:24:15.481Z,1.27
2023-02-18T09:29:40.437Z,1.10
2023-02-18T09:35:02.835Z,0.90
2023-02-18T09:40:33.226Z,1.10
2023-02-18T09:46:25.474Z,1.10
2023-02-18T09:52:10.566Z,1.40
2023-02-18T09:58:08.420Z,3.53
2023-02-18T10:03:46.676Z,1.60
2023-02-18T10:09:29.848Z,0.87
2023-02-18T10:14:56.689Z,1.20
2023-02-18T10:20:23.184Z,0.70
2023-02-18T10:25:54.918Z,0.80
2023-02-18T10:31:49.923Z,0.90
2023-02-18T10:38:05.355Z,0.50
2023-02-18T10:44:00.404Z,0.43
2023-02-18T10:50:00.480Z,0.60
2023-02-18T10:55:39.842Z,0.77
2023-02-18T11:01:09.022Z,0.93
2023-02-18T11:06:47.194Z,1.20
2023-02-18T11:12:43.243Z,1.23
2023-02-18T11:18:49.156Z,1.43
2023-02-18T11:24:23.415Z,1.20
2023-02-18T11:29:48.476Z,2.33
2023-02-18T11:35:27.530Z,2.20
2023-02-18T11:41:35.737Z,2.20
2023-02-18T11:47:28.453Z,2.03
2023-02-18T11:53:11.901Z,2.10
2023-02-18T11:59:00.625Z,2.37
2023-02-18T12:05:05.406Z,2.07
2023-02-18T12:10:57.280Z,2.30
2023-02-18T12:17:14.695Z,1.83
2023-02-18T12:23:19.769Z,1.80
2023-02-18T12:29:02.577Z,1.63
2023-02-18T12:34:34.263Z,1.83
2023-02-18T12:40:17.250Z,1.93
2023-02-18T12:52:27.205Z,1.47
2023-02-18T12:58:31.693Z,1.30
2023-02-18T13:04:30.601Z,1.30
2023-02-18T13:10:07.766Z,1.40
2023-02-18T13:15:55.185Z,1.50
2023-02-18T13:21:30.153Z,1.23
2023-02-18T13:27:24.017Z,1.40
2023-02-18T13:33:08.355Z,1.20
2023-02-18T13:39:14.792Z,1.20
2023-02-18T13:44:48.940Z,1.17
2023-02-18T13:50:31.976Z,1.10
2023-02-18T13:56:30.536Z,1.20
2023-02-18T14:08:19.105Z,0.80
2023-02-18T14:14:03.624Z,0.90
2023-02-18T14:19:48.788Z,1.00
2023-02-18T14:25:11.262Z,1.10
2023-02-18T14:30:43.278Z,2.17
2023-02-18T14:36:25.391Z,0.90
2023-02-18T14:42:23.077Z,0.80
2023-02-18T14:48:30.270Z,1.20
2023-02-18T14:54:18.950Z,1.00
2023-02-18T14:59:43.059Z,1.13
2023-02-18T15:05:39.033Z,0.90
2023-02-18T15:11:31.268Z,1.47
2023-02-18T15:17:13.216Z,1.47
2023-02-18T15:23:06.514Z,0.90
2023-02-18T15:28:55.445Z,3.90
2023-02-18T15:34:37.679Z,2.17
2023-02-18T15:39:59.373Z,1.40
2023-02-18T15:45:37.802Z,2.30
2023-02-18T15:51:32.448Z,1.00
2023-02-18T15:57:15.620Z,0.70
2023-02-18T16:03:37.504Z,1.00
2023-02-18T16:09:17.755Z,0.80
2023-02-18T16:14:48.628Z,1.20
2023-02-18T16:20:22.197Z,0.80
2023-02-18T16:25:54.318Z,1.20
2023-02-18T16:31:32.275Z,0.97
2023-02-18T16:37:24.545Z,0.97
2023-02-18T16:43:05.048Z,0.90
2023-02-18T16:48:55.758Z,0.90
2023-02-18T16:54:25.469Z,0.90
2023-02-18T16:59:47.596Z,0.87
2023-02-18T17:05:31.079Z,0.83
2023-02-18T17:11:05.074Z,0.60
2023-02-18T17:16:28.268Z,0.90
2023-02-18T17:22:05.736Z,2.07
2023-02-18T17:27:47.913Z,3.70
2023-02-18T17:33:30.344Z,4.10
2023-02-18T17:39:05.274Z,1.40
2023-02-18T17:44:29.278Z,1.20
2023-02-18T17:49:50.444Z,1.40
2023-02-18T17:55:30.736Z,1.00
2023-02-18T18:00:55.767Z,1.10
2023-02-18T18:06:38.963Z,1.00
2023-02-18T18:12:27.752Z,1.10
2023-02-18T18:18:11.150Z,0.93
2023-02-18T18:23:40.237Z,1.10
2023-02-18T18:29:12.019Z,1.00
2023-02-18T18:34:33.593Z,1.10
2023-02-18T18:39:55.045Z,1.00
2023-02-18T18:45:22.747Z,1.23
2023-02-18T18:50:44.779Z,1.33
2023-02-18T18:56:31.344Z,1.30
2023-02-18T19:02:12.681Z,1.00
2023-02-18T19:07:37.997Z,1.20
2023-02-18T19:13:36.734Z,0.97
2023-02-18T19:19:07.331Z,1.10
2023-02-18T19:24:32.691Z,1.03
2023-02-18T19:29:54.680Z,1.20
2023-02-18T19:35:15.950Z,3.40
2023-02-18T19:40:38.697Z,2.50
2023-02-18T19:46:30.971Z,2.50
2023-02-18T19:52:11.761Z,2.10
2023-02-18T19:58:13.294Z,1.73
2023-02-18T20:04:06.296Z,1.10
2023-02-18T20:09:59.056Z,1.90
2023-02-18T20:15:45.250Z,2.77
2023-02-18T20:21:15.508Z,2.30
2023-02-18T20:27:02.935Z,2.00
2023-02-18T20:33:09.706Z,1.30
2023-02-18T20:39:15.384Z,1.17
2023-02-18T20:44:38.079Z,1.10
2023-02-18T20:49:59.704Z,1.17
2023-02-18T20:55:21.210Z,1.37
2023-02-18T21:00:42.692Z,1.47
2023-02-18T21:06:37.517Z,1.27
2023-02-18T21:12:11.934Z,1.53
2023-02-18T21:17:54.082Z,1.80
2023-02-18T21:23:34.973Z,1.43
2023-02-18T21:29:13.451Z,1.40
2023-02-18T21:34:40.814Z,1.43
2023-02-18T21:40:02.516Z,1.27
2023-02-18T21:45:23.973Z,1.37
2023-02-18T21:50:56.682Z,1.27
2023-02-18T21:56:32.442Z,1.10
2023-02-18T22:02:15.772Z,1.77
2023-02-18T22:07:43.434Z,1.30
2023-02-18T22:13:14.968Z,1.40
2023-02-18T22:18:55.109Z,1.30
2023-02-18T22:24:25.009Z,1.20
2023-02-18T22:29:47.485Z,1.40
2023-02-18T22:35:08.771Z,1.23
2023-02-18T22:40:30.426Z,1.67
2023-02-18T22:45:54.606Z,1.20
2023-02-18T22:51:39.556Z,1.40
2023-02-18T22:57:20.992Z,1.40
2023-02-18T23:03:20.104Z,1.50
2023-02-18T23:09:12.364Z,1.43
2023-02-18T23:14:35.268Z,1.27
2023-02-18T23:19:56.454Z,1.67
2023-02-18T23:25:18.102Z,1.57
2023-02-18T23:30:39.865Z,1.50
2023-02-18T23:36:41.504Z,1.30
2023-02-18T23:42:29.229Z,1.33
2023-02-18T23:48:04.468Z,1.57
2023-02-18T23:53:40.032Z,1.40
2023-02-18T23:59:11.237Z,1.50
